Lozano, Texas
Current Conditions -  °F | °C
As of 11:03 PM on Saturday 20 Dec 2014 (Local Time) from KHRL Reporting Station
Overcast Overcast  
Wind Chill: 57°   Ceiling: 7000
Heat Index: 57°   Visibility: 10mi
Dew Point: 54°   Wind: 10mph
Humidity: 88%   Direction: 360°N
Pressure: 30.13"   Gusts: NA
Location:  26.19°N, 97.54°W
Report Text: KHRL 210503Z 36009KT 10SM SCT011 OVC070 14/12 A3013 RMK AO2
Loading
Personal Weather Stations






























Interactive Weather Map New forecast layout! Learn more

10-Day Weather Forecast

Advertisements
Track Severe Weather on mobile